createdAt,value
2018-02-26T00:00:27.123Z,7.40
2018-02-26T00:02:25.539Z,7.60
2018-02-26T00:03:31.034Z,6.90
2018-02-26T00:05:29.472Z,7.80
2018-02-26T00:06:34.945Z,9.10
2018-02-26T00:08:33.411Z,7.70
2018-02-26T00:09:38.857Z,7.40
2018-02-26T00:11:37.273Z,8.00
2018-02-26T00:12:42.775Z,8.60
2018-02-26T00:14:41.208Z,8.20
2018-02-26T00:15:46.682Z,6.90
2018-02-26T00:17:45.105Z,6.90
2018-02-26T00:18:50.593Z,7.20
2018-02-26T00:20:49.035Z,7.80
2018-02-26T00:21:54.516Z,7.10
2018-02-26T00:23:52.948Z,8.20
2018-02-26T00:24:58.420Z,7.60
2018-02-26T00:26:56.877Z,8.00
2018-02-26T00:28:02.328Z,8.20
2018-02-26T00:30:01.382Z,7.30
2018-02-26T00:31:06.853Z,8.60
2018-02-26T00:33:05.283Z,7.00
2018-02-26T00:34:10.779Z,6.90
2018-02-26T00:36:09.206Z,8.30
2018-02-26T00:37:14.687Z,7.00
2018-02-26T00:39:13.107Z,8.80
2018-02-26T00:40:18.599Z,8.70
2018-02-26T00:42:17.033Z,7.40
2018-02-26T00:43:22.508Z,7.90
2018-02-26T00:45:20.947Z,9.20
2018-02-26T00:46:26.431Z,7.00
2018-02-26T00:48:24.844Z,7.50
2018-02-26T00:49:30.419Z,9.10
2018-02-26T00:51:28.766Z,9.00
2018-02-26T00:52:34.251Z,7.80
2018-02-26T00:54:32.658Z,9.50
2018-02-26T00:55:38.163Z,8.40
2018-02-26T00:57:36.593Z,8.00
2018-02-26T00:58:42.071Z,8.60
2018-02-26T01:00:40.501Z,9.00
2018-02-26T01:01:45.981Z,9.30
2018-02-26T01:03:44.422Z,9.10
2018-02-26T01:04:49.893Z,9.80
2018-02-26T01:06:48.379Z,9.00
2018-02-26T01:07:53.804Z,10.10
2018-02-26T01:09:52.218Z,10.00
2018-02-26T01:10:57.719Z,10.50
2018-02-26T01:12:56.150Z,9.60
2018-02-26T01:14:01.635Z,10.00
2018-02-26T01:16:00.066Z,12.20
2018-02-26T01:17:05.536Z,9.40
2018-02-26T01:19:03.984Z,10.80
2018-02-26T01:20:09.451Z,10.10
2018-02-26T01:22:07.991Z,10.70
2018-02-26T01:23:13.465Z,11.00
2018-02-26T01:25:11.891Z,10.10
2018-02-26T01:26:17.381Z,11.50
2018-02-26T01:28:15.814Z,11.60
2018-02-26T01:29:21.289Z,9.10
2018-02-26T01:31:19.714Z,8.40
2018-02-26T01:32:25.202Z,8.30
2018-02-26T01:34:23.634Z,8.40
2018-02-26T01:35:29.117Z,7.80
2018-02-26T01:37:27.559Z,8.50
2018-02-26T01:38:33.041Z,8.80
2018-02-26T01:42:03.216Z,10.00
2018-02-26T01:43:08.696Z,10.20
2018-02-26T01:45:07.153Z,10.20
2018-02-26T01:46:12.600Z,10.20
2018-02-26T01:48:11.058Z,10.50
2018-02-26T01:49:16.511Z,10.30
2018-02-26T01:51:14.939Z,9.70
2018-02-26T01:52:20.429Z,9.50
2018-02-26T01:54:18.864Z,9.60
2018-02-26T01:55:24.340Z,10.20
2018-02-26T01:57:22.754Z,11.00
2018-02-26T01:58:28.249Z,12.00
2018-02-26T02:00:26.992Z,11.60
2018-02-26T02:01:32.363Z,12.70
2018-02-26T02:03:30.803Z,13.00
2018-02-26T02:04:36.276Z,12.00
2018-02-26T02:06:34.699Z,13.20
2018-02-26T02:07:40.192Z,12.60
2018-02-26T02:09:38.621Z,13.10
2018-02-26T02:10:44.103Z,13.30
2018-02-26T02:12:42.527Z,13.70
2018-02-26T02:13:48.021Z,13.30
2018-02-26T02:15:46.550Z,14.00
2018-02-26T02:16:52.118Z,14.90
2018-02-26T02:18:50.472Z,15.80
2018-02-26T02:19:55.941Z,13.90
2018-02-26T02:21:54.383Z,13.90
2018-02-26T02:22:59.873Z,15.70
2018-02-26T02:24:58.291Z,15.70
2018-02-26T02:26:03.771Z,14.30
2018-02-26T02:28:02.207Z,14.40
2018-02-26T02:29:07.686Z,14.40
2018-02-26T02:31:06.115Z,15.20
2018-02-26T02:32:11.594Z,14.80
2018-02-26T02:34:10.106Z,15.30
2018-02-26T02:35:15.509Z,14.60
2018-02-26T02:37:13.940Z,15.30
2018-02-26T02:38:19.413Z,14.90
2018-02-26T02:40:17.874Z,14.00
2018-02-26T02:41:23.324Z,16.00
2018-02-26T02:43:21.763Z,15.90
2018-02-26T02:44:27.260Z,14.20
2018-02-26T02:46:25.673Z,15.90
2018-02-26T02:47:31.159Z,15.20
2018-02-26T02:49:29.669Z,14.60
2018-02-26T02:50:35.174Z,16.20
2018-02-26T02:52:33.696Z,14.10
2018-02-26T02:53:39.082Z,14.30
2018-02-26T02:55:37.508Z,14.00
2018-02-26T02:56:42.995Z,14.40
2018-02-26T02:58:41.434Z,14.30
2018-02-26T02:59:46.908Z,13.80
2018-02-26T03:01:45.336Z,15.90
2018-02-26T03:02:50.822Z,14.70
2018-02-26T03:04:49.237Z,13.20
2018-02-26T03:05:54.728Z,13.00
2018-02-26T03:07:53.172Z,13.80
2018-02-26T03:08:58.643Z,14.00
2018-02-26T03:10:57.056Z,12.50
2018-02-26T03:12:02.625Z,12.20
2018-02-26T03:14:00.982Z,12.80
2018-02-26T03:15:06.463Z,12.30
2018-02-26T03:17:04.890Z,12.10
2018-02-26T03:18:10.378Z,12.20
2018-02-26T03:20:08.806Z,13.00
2018-02-26T03:21:14.288Z,11.00
2018-02-26T03:23:12.718Z,11.40
2018-02-26T03:24:18.201Z,11.40
2018-02-26T03:26:16.617Z,10.00
2018-02-26T03:27:22.115Z,10.70
2018-02-26T03:29:20.546Z,11.10
2018-02-26T03:30:26.065Z,10.80
2018-02-26T03:32:24.473Z,11.00
2018-02-26T03:33:29.933Z,12.00
2018-02-26T03:35:28.364Z,11.10
2018-02-26T03:36:33.847Z,11.10
2018-02-26T03:38:32.283Z,12.20
2018-02-26T03:39:37.763Z,11.20
2018-02-26T03:41:36.193Z,11.90
2018-02-26T03:42:41.673Z,11.40
2018-02-26T03:44:40.614Z,13.90
2018-02-26T03:45:46.096Z,11.70
2018-02-26T03:47:44.523Z,12.00
2018-02-26T03:48:50.013Z,11.70
2018-02-26T03:50:48.454Z,13.10
2018-02-26T03:51:53.920Z,13.70
2018-02-26T03:53:52.459Z,11.40
2018-02-26T03:54:57.939Z,11.30
2018-02-26T03:56:56.390Z,10.80
2018-02-26T03:58:01.860Z,11.10
2018-02-26T04:00:00.293Z,12.00
2018-02-26T04:01:05.763Z,11.30
2018-02-26T04:03:04.178Z,11.80
2018-02-26T04:04:09.676Z,11.20
2018-02-26T04:06:08.103Z,11.20
2018-02-26T04:07:13.588Z,12.10
2018-02-26T04:09:12.028Z,14.00
2018-02-26T04:10:17.491Z,12.50
2018-02-26T04:12:15.925Z,11.90
2018-02-26T04:13:21.416Z,11.70
2018-02-26T04:15:19.844Z,11.80
2018-02-26T04:16:25.320Z,12.20
2018-02-26T04:18:23.742Z,12.70
2018-02-26T04:19:29.236Z,12.50
2018-02-26T04:21:27.677Z,12.60
2018-02-26T04:22:33.151Z,12.20
2018-02-26T04:24:31.559Z,13.40
2018-02-26T04:25:37.053Z,13.80
2018-02-26T04:27:35.504Z,12.90
2018-02-26T04:28:40.986Z,12.60
2018-02-26T04:30:39.452Z,13.10
2018-02-26T04:31:44.885Z,12.10
2018-02-26T04:33:43.302Z,13.60
2018-02-26T04:34:48.795Z,12.60
2018-02-26T04:36:47.233Z,12.40
2018-02-26T04:37:52.714Z,12.90
2018-02-26T04:39:51.130Z,13.40
2018-02-26T04:40:56.619Z,13.10
2018-02-26T04:42:55.053Z,15.60
2018-02-26T04:44:00.537Z,14.80
2018-02-26T04:45:58.943Z,14.20
2018-02-26T04:47:04.440Z,14.70
2018-02-26T04:49:02.935Z,15.80
2018-02-26T04:50:08.361Z,18.60
2018-02-26T04:52:06.785Z,16.30
2018-02-26T04:53:12.276Z,17.30
2018-02-26T04:55:10.690Z,16.80
2018-02-26T04:56:16.187Z,15.60
2018-02-26T04:58:15.150Z,17.60
2018-02-26T04:59:20.602Z,18.10
2018-02-26T05:01:19.017Z,19.40
2018-02-26T05:02:24.514Z,19.40
2018-02-26T05:04:22.949Z,17.10
2018-02-26T05:05:28.423Z,17.90
2018-02-26T05:07:26.865Z,17.80
2018-02-26T05:08:32.338Z,15.80
2018-02-26T05:10:30.758Z,15.90
2018-02-26T05:11:36.256Z,16.10
2018-02-26T05:13:34.693Z,13.60
2018-02-26T05:14:40.171Z,13.40
2018-02-26T05:16:38.603Z,12.30
2018-02-26T05:17:44.127Z,13.20
2018-02-26T05:19:42.512Z,12.20
2018-02-26T05:20:47.993Z,14.00
2018-02-26T05:22:46.423Z,13.20
2018-02-26T05:23:51.898Z,12.90
2018-02-26T05:25:50.322Z,12.10
2018-02-26T05:26:55.813Z,13.30
2018-02-26T05:28:54.342Z,12.20
2018-02-26T05:29:59.821Z,11.40
2018-02-26T05:31:58.245Z,12.80
2018-02-26T05:33:03.737Z,12.00
2018-02-26T05:35:02.176Z,13.80
2018-02-26T05:36:07.650Z,11.60
2018-02-26T05:38:06.066Z,12.30
2018-02-26T05:39:11.575Z,12.00
2018-02-26T05:41:10.006Z,11.80
2018-02-26T05:42:15.473Z,11.40
2018-02-26T05:44:13.907Z,11.50
2018-02-26T05:45:19.384Z,11.30
2018-02-26T05:47:17.807Z,11.60
2018-02-26T05:48:23.301Z,12.80
2018-02-26T05:50:21.745Z,12.90
2018-02-26T05:51:27.205Z,12.80
2018-02-26T05:53:25.636Z,12.90
2018-02-26T05:54:31.124Z,13.00
2018-02-26T05:56:29.558Z,12.50
2018-02-26T05:57:35.032Z,14.30
2018-02-26T05:59:35.034Z,12.40
2018-02-26T06:00:40.484Z,11.70
2018-02-26T06:02:38.906Z,12.80
2018-02-26T06:03:44.393Z,13.40
2018-02-26T06:05:42.928Z,13.60
2018-02-26T06:06:48.406Z,14.00
2018-02-26T06:08:46.833Z,12.90
2018-02-26T06:09:52.322Z,13.00
2018-02-26T06:11:50.861Z,12.60
2018-02-26T06:12:56.330Z,13.70
2018-02-26T06:14:54.885Z,12.30
2018-02-26T06:16:00.350Z,13.10
2018-02-26T06:17:58.773Z,13.20
2018-02-26T06:19:04.260Z,12.40
2018-02-26T06:21:02.702Z,12.20
2018-02-26T06:22:08.172Z,11.00
2018-02-26T06:24:06.590Z,12.10
2018-02-26T06:25:12.090Z,13.40
2018-02-26T06:27:10.532Z,12.60
2018-02-26T06:28:16.029Z,12.60
2018-02-26T06:30:14.415Z,11.40
2018-02-26T06:31:19.914Z,12.40
2018-02-26T06:33:18.353Z,12.50
2018-02-26T06:34:23.824Z,10.70
2018-02-26T06:36:22.256Z,11.20
2018-02-26T06:37:27.733Z,12.40
2018-02-26T06:39:26.159Z,12.40
2018-02-26T06:40:31.645Z,12.00
2018-02-26T06:42:30.180Z,11.70
2018-02-26T06:43:35.659Z,10.80
2018-02-26T06:45:34.217Z,11.20
2018-02-26T06:46:39.571Z,12.50
2018-02-26T06:48:38.010Z,10.60
2018-02-26T06:49:43.495Z,12.30
2018-02-26T06:51:41.933Z,10.20
2018-02-26T06:52:47.406Z,10.60
2018-02-26T06:54:45.822Z,10.40
2018-02-26T06:55:51.311Z,10.80
2018-02-26T06:57:49.748Z,11.90
2018-02-26T06:58:55.221Z,11.50
2018-02-26T07:00:53.643Z,12.10
2018-02-26T07:01:59.143Z,10.80
2018-02-26T07:03:57.585Z,10.40
2018-02-26T07:05:03.044Z,11.00
2018-02-26T07:07:01.466Z,11.30
2018-02-26T07:08:06.959Z,13.40
2018-02-26T07:10:05.401Z,10.60
2018-02-26T07:11:10.874Z,9.70
2018-02-26T07:13:09.304Z,10.10
2018-02-26T07:14:14.799Z,9.90
2018-02-26T07:16:13.713Z,10.60
2018-02-26T07:17:19.211Z,12.40
2018-02-26T07:19:17.642Z,10.90
2018-02-26T07:20:23.121Z,10.10
2018-02-26T07:22:21.547Z,9.60
2018-02-26T07:23:27.042Z,13.50
2018-02-26T07:25:25.464Z,10.20
2018-02-26T07:26:30.948Z,10.30
2018-02-26T07:28:29.437Z,10.80
2018-02-26T07:29:34.856Z,11.20
2018-02-26T07:31:33.277Z,11.40
2018-02-26T07:32:38.767Z,13.30
2018-02-26T07:34:37.207Z,10.90
2018-02-26T07:35:42.679Z,11.70
2018-02-26T07:37:41.122Z,11.60
2018-02-26T07:38:46.591Z,11.60
2018-02-26T07:40:45.028Z,10.60
2018-02-26T07:41:50.505Z,11.10
2018-02-26T07:43:48.920Z,11.20
2018-02-26T07:44:54.416Z,11.50
2018-02-26T07:46:52.860Z,11.30
2018-02-26T07:47:58.362Z,12.50
2018-02-26T07:49:56.764Z,10.60
2018-02-26T07:51:02.243Z,13.60
2018-02-26T07:52:07.747Z,12.70
2018-02-26T07:53:13.239Z,10.80
2018-02-26T07:54:18.751Z,10.10
2018-02-26T07:55:24.246Z,10.00
2018-02-26T07:56:29.743Z,9.90
2018-02-26T07:57:35.243Z,9.60
2018-02-26T07:58:40.742Z,10.00
2018-02-26T07:59:46.245Z,10.70
2018-02-26T08:00:51.740Z,11.60
2018-02-26T08:01:57.244Z,10.40
2018-02-26T08:03:02.743Z,10.30
2018-02-26T08:04:08.246Z,10.30
2018-02-26T08:05:13.745Z,9.20
2018-02-26T08:06:19.246Z,8.90
2018-02-26T08:07:24.750Z,11.20
2018-02-26T08:08:30.257Z,10.10
2018-02-26T08:09:35.751Z,9.20
2018-02-26T08:10:41.252Z,10.10
2018-02-26T08:11:46.751Z,9.10
2018-02-26T08:12:52.251Z,11.10
2018-02-26T08:13:57.760Z,11.10
2018-02-26T08:15:03.264Z,10.10
2018-02-26T08:16:08.765Z,9.70
2018-02-26T08:17:14.261Z,9.90
2018-02-26T08:18:19.767Z,9.60
2018-02-26T08:19:25.309Z,9.10
2018-02-26T08:20:30.765Z,9.50
2018-02-26T08:21:36.277Z,9.80
2018-02-26T08:22:41.766Z,10.10
2018-02-26T08:23:47.271Z,11.30
2018-02-26T08:24:52.783Z,9.50
2018-02-26T08:25:58.274Z,10.10
2018-02-26T08:27:03.791Z,10.90
2018-02-26T08:28:09.287Z,10.60
2018-02-26T08:29:14.785Z,11.30
2018-02-26T08:30:20.283Z,8.90
2018-02-26T08:31:25.787Z,9.80
2018-02-26T08:32:31.287Z,10.60
2018-02-26T08:33:36.784Z,9.00
2018-02-26T08:34:42.292Z,9.60
2018-02-26T08:35:47.795Z,8.80
2018-02-26T08:36:53.286Z,9.80
2018-02-26T08:37:58.819Z,9.00
2018-02-26T08:39:04.335Z,12.10
2018-02-26T08:40:09.938Z,9.20
2018-02-26T08:41:15.495Z,8.70
2018-02-26T08:42:20.811Z,8.80
2018-02-26T08:43:26.360Z,9.40
2018-02-26T08:44:31.806Z,10.00
2018-02-26T08:45:37.312Z,8.30
2018-02-26T08:46:42.816Z,7.90
2018-02-26T08:47:48.337Z,9.40
2018-02-26T08:48:53.817Z,9.20
2018-02-26T08:49:59.321Z,9.20
2018-02-26T08:51:04.827Z,8.80
2018-02-26T08:52:10.315Z,7.70
2018-02-26T08:53:15.814Z,9.10
2018-02-26T08:54:21.321Z,8.10
2018-02-26T08:55:26.820Z,8.70
2018-02-26T08:56:32.319Z,9.10
2018-02-26T08:57:37.847Z,8.80
2018-02-26T08:58:43.334Z,8.20
2018-02-26T08:59:48.842Z,7.50
2018-02-26T09:00:54.342Z,8.00
2018-02-26T09:01:59.837Z,9.30
2018-02-26T09:03:05.339Z,8.90
2018-02-26T09:04:10.838Z,9.30
2018-02-26T09:05:16.340Z,9.40
2018-02-26T09:06:21.855Z,9.10
2018-02-26T09:07:27.344Z,8.70
2018-02-26T09:08:32.928Z,9.40
2018-02-26T09:09:38.988Z,8.10
2018-02-26T09:10:43.855Z,9.00
2018-02-26T09:11:49.347Z,8.40
2018-02-26T09:12:54.849Z,8.80
2018-02-26T09:14:00.439Z,8.50
2018-02-26T09:15:05.857Z,8.80
2018-02-26T09:16:11.370Z,8.50
2018-02-26T09:17:16.864Z,8.20
2018-02-26T09:18:22.368Z,8.10
2018-02-26T09:19:27.907Z,9.00
2018-02-26T09:20:33.375Z,8.30
2018-02-26T09:21:38.876Z,9.10
2018-02-26T09:22:44.381Z,8.00
2018-02-26T09:23:49.874Z,8.60
2018-02-26T09:24:55.369Z,9.30
2018-02-26T09:26:00.899Z,7.40
2018-02-26T09:27:06.380Z,8.50
2018-02-26T09:28:11.886Z,8.60
2018-02-26T09:29:17.390Z,8.10
2018-02-26T09:30:22.894Z,8.80
2018-02-26T09:31:28.457Z,10.00
2018-02-26T09:32:33.890Z,8.70
2018-02-26T09:33:39.387Z,10.40
2018-02-26T09:34:44.930Z,8.10
2018-02-26T09:35:50.406Z,10.10
2018-02-26T09:36:55.906Z,8.50
2018-02-26T09:38:01.396Z,8.40
2018-02-26T09:39:06.905Z,7.40
2018-02-26T09:40:12.422Z,8.00
2018-02-26T09:41:17.908Z,8.00
2018-02-26T09:42:23.432Z,8.40
2018-02-26T09:43:28.912Z,7.40
2018-02-26T09:44:34.410Z,9.00
2018-02-26T09:45:39.916Z,8.40
2018-02-26T09:46:45.479Z,8.20
2018-02-26T09:47:50.928Z,7.00
2018-02-26T09:48:56.440Z,6.90
2018-02-26T09:50:01.928Z,7.40
2018-02-26T09:51:07.426Z,7.00
2018-02-26T09:52:12.932Z,7.00
2018-02-26T09:53:18.443Z,6.80
2018-02-26T09:54:23.941Z,7.40
2018-02-26T09:55:29.444Z,7.30
2018-02-26T09:56:34.939Z,7.40
2018-02-26T09:57:40.452Z,7.60
2018-02-26T09:58:45.946Z,6.60
2018-02-26T09:59:51.688Z,7.60
2018-02-26T10:00:56.948Z,7.00
2018-02-26T10:02:02.467Z,6.50
2018-02-26T10:03:07.952Z,6.40
2018-02-26T10:04:13.464Z,6.10
2018-02-26T10:05:18.967Z,6.40
2018-02-26T10:06:24.469Z,5.60
2018-02-26T10:07:29.978Z,7.40
2018-02-26T10:08:35.469Z,7.00
2018-02-26T10:09:40.972Z,6.40
2018-02-26T10:10:46.476Z,9.00
2018-02-26T10:11:51.984Z,7.50
2018-02-26T10:12:57.479Z,6.20
2018-02-26T10:14:03.016Z,6.10
2018-02-26T10:15:08.488Z,6.00
2018-02-26T10:16:14.003Z,6.50
2018-02-26T10:17:19.506Z,5.30
2018-02-26T10:18:24.995Z,4.90
2018-02-26T10:19:30.524Z,5.20
2018-02-26T10:20:35.996Z,4.80
2018-02-26T10:21:41.519Z,7.30
2018-02-26T10:22:47.006Z,6.20
2018-02-26T10:23:52.501Z,4.90
2018-02-26T10:24:58.042Z,5.20
2018-02-26T10:26:03.513Z,5.70
2018-02-26T10:27:09.061Z,8.10
2018-02-26T10:28:14.524Z,5.50
2018-02-26T10:29:20.011Z,5.40
2018-02-26T10:30:25.530Z,6.10
2018-02-26T10:31:31.016Z,6.80
2018-02-26T10:32:36.527Z,5.70
2018-02-26T10:33:42.023Z,6.10
2018-02-26T10:34:47.533Z,5.20
2018-02-26T10:35:53.035Z,4.20
2018-02-26T10:36:58.543Z,4.30
2018-02-26T10:38:04.037Z,4.40
2018-02-26T10:39:09.535Z,6.10
2018-02-26T10:40:15.045Z,5.90
2018-02-26T10:41:20.548Z,5.20
2018-02-26T10:42:26.044Z,4.20
2018-02-26T10:43:31.553Z,5.10
2018-02-26T10:44:37.063Z,3.90
2018-02-26T10:45:42.564Z,4.00
2018-02-26T10:46:48.066Z,6.20
2018-02-26T10:47:53.566Z,4.50
2018-02-26T10:48:59.069Z,4.60
2018-02-26T10:50:04.580Z,4.90
2018-02-26T10:51:10.075Z,5.20
2018-02-26T10:52:15.586Z,5.50
2018-02-26T10:53:21.074Z,5.40
2018-02-26T10:54:26.583Z,4.50
2018-02-26T10:55:32.083Z,5.10
2018-02-26T10:56:37.592Z,5.20
2018-02-26T10:57:43.146Z,6.10
2018-02-26T10:58:48.604Z,5.80
2018-02-26T10:59:54.095Z,5.80
2018-02-26T11:00:59.601Z,6.60
2018-02-26T11:02:05.100Z,5.20
2018-02-26T11:03:10.604Z,5.80
2018-02-26T11:04:16.128Z,7.00
2018-02-26T11:05:21.625Z,9.40
2018-02-26T11:06:27.122Z,10.90
2018-02-26T11:07:32.706Z,10.40
2018-02-26T11:08:38.126Z,10.70
2018-02-26T11:09:43.629Z,10.90
2018-02-26T11:10:49.141Z,10.30
2018-02-26T11:11:54.632Z,11.00
2018-02-26T11:13:00.142Z,9.80
2018-02-26T11:14:05.640Z,10.60
2018-02-26T11:15:11.145Z,10.60
2018-02-26T11:16:16.654Z,10.60
2018-02-26T11:17:22.152Z,8.80
2018-02-26T11:18:27.664Z,9.10
2018-02-26T11:19:33.153Z,8.40
2018-02-26T11:20:38.654Z,9.50
2018-02-26T11:21:44.160Z,11.10
2018-02-26T11:22:49.664Z,9.40
2018-02-26T11:23:55.181Z,8.00
2018-02-26T11:25:00.674Z,7.80
2018-02-26T11:26:06.397Z,8.10
2018-02-26T11:28:17.187Z,7.10
2018-02-26T11:29:22.723Z,7.80
2018-02-26T11:30:28.212Z,6.60
2018-02-26T11:31:33.688Z,7.80
2018-02-26T11:32:39.196Z,6.70
2018-02-26T11:33:44.697Z,5.80
2018-02-26T11:34:50.221Z,6.70
2018-02-26T11:35:55.698Z,8.80
2018-02-26T11:37:01.215Z,5.50
2018-02-26T11:38:06.705Z,6.80
2018-02-26T11:39:12.227Z,4.70
2018-02-26T11:40:17.710Z,4.90
2018-02-26T11:41:23.223Z,5.60
2018-02-26T11:42:28.718Z,5.60
2018-02-26T11:43:34.218Z,7.70
2018-02-26T11:44:39.727Z,6.80
2018-02-26T11:45:45.232Z,9.30
2018-02-26T11:46:50.748Z,6.40
2018-02-26T11:47:56.232Z,6.40
2018-02-26T11:49:01.750Z,6.20
2018-02-26T11:50:07.251Z,5.30
2018-02-26T11:51:12.744Z,5.00
2018-02-26T11:52:18.309Z,5.70
2018-02-26T11:53:23.796Z,5.70
2018-02-26T11:54:29.251Z,6.10
2018-02-26T11:55:34.759Z,5.70
2018-02-26T11:56:40.279Z,5.20
2018-02-26T11:57:45.763Z,5.80
2018-02-26T11:58:51.268Z,6.00
2018-02-26T11:59:56.782Z,5.20
2018-02-26T12:01:02.287Z,6.20
2018-02-26T12:02:07.789Z,8.70
2018-02-26T12:03:13.288Z,5.90
2018-02-26T12:04:18.787Z,5.40
2018-02-26T12:05:24.340Z,5.90
2018-02-26T12:06:29.826Z,7.10
2018-02-26T12:07:35.297Z,6.50
2018-02-26T12:08:40.803Z,6.90
2018-02-26T12:09:46.313Z,5.90
2018-02-26T12:10:51.823Z,9.10
2018-02-26T12:11:57.315Z,7.10
2018-02-26T12:13:02.848Z,6.80
2018-02-26T12:14:08.319Z,7.40
2018-02-26T12:15:13.821Z,8.20
2018-02-26T12:16:19.362Z,6.90
2018-02-26T12:17:24.888Z,7.40
2018-02-26T12:18:30.336Z,7.80
2018-02-26T12:19:35.930Z,6.70
2018-02-26T12:20:41.344Z,6.60
2018-02-26T12:21:46.845Z,6.40
2018-02-26T12:22:52.354Z,6.80
2018-02-26T12:23:57.904Z,6.30
2018-02-26T12:25:03.365Z,6.00
2018-02-26T12:26:08.870Z,5.80
2018-02-26T12:27:14.377Z,8.60
2018-02-26T12:28:19.888Z,6.70
2018-02-26T12:29:25.374Z,6.10
2018-02-26T12:30:30.879Z,6.00
2018-02-26T12:31:36.386Z,5.70
2018-02-26T12:32:41.892Z,5.70
2018-02-26T12:33:47.393Z,5.50
2018-02-26T12:34:52.959Z,4.60
2018-02-26T12:35:58.407Z,5.60
2018-02-26T12:37:03.909Z,4.40
2018-02-26T12:38:09.432Z,6.00
2018-02-26T12:39:14.917Z,5.00
2018-02-26T12:40:20.413Z,4.40
2018-02-26T12:41:25.914Z,5.20
2018-02-26T12:42:31.453Z,4.80
2018-02-26T12:43:36.930Z,5.60
2018-02-26T12:44:42.493Z,4.00
2018-02-26T12:45:47.936Z,4.50
2018-02-26T12:46:53.443Z,3.90
2018-02-26T12:47:58.942Z,6.70
2018-02-26T12:49:04.444Z,5.70
2018-02-26T12:50:10.003Z,4.50
2018-02-26T12:51:15.454Z,4.20
2018-02-26T12:52:20.957Z,5.50
2018-02-26T12:53:26.457Z,4.60
2018-02-26T12:54:31.960Z,5.10
2018-02-26T12:55:37.464Z,6.60
2018-02-26T12:56:42.975Z,4.30
2018-02-26T12:57:48.474Z,3.40
2018-02-26T12:58:53.972Z,4.60
2018-02-26T12:59:59.476Z,5.20
2018-02-26T13:01:04.996Z,4.60
2018-02-26T13:02:10.486Z,6.20
2018-02-26T13:03:16.004Z,3.90
2018-02-26T13:04:21.509Z,4.00
2018-02-26T13:05:27.022Z,5.40
2018-02-26T13:06:32.507Z,4.80
2018-02-26T13:07:38.012Z,5.00
2018-02-26T13:08:43.521Z,4.30
2018-02-26T13:09:49.022Z,3.80
2018-02-26T13:10:54.527Z,3.70
2018-02-26T13:12:00.037Z,4.90
2018-02-26T13:13:05.603Z,4.80
2018-02-26T13:14:11.121Z,4.70
2018-02-26T13:15:16.552Z,3.20
2018-02-26T13:16:22.096Z,4.30
2018-02-26T13:17:27.662Z,3.30
2018-02-26T13:18:33.089Z,3.40
2018-02-26T13:19:38.607Z,3.20
2018-02-26T13:20:44.114Z,3.30
2018-02-26T13:21:49.599Z,3.30
2018-02-26T13:22:55.181Z,4.50
2018-02-26T13:24:00.622Z,3.40
2018-02-26T13:25:06.142Z,5.50
2018-02-26T13:26:11.641Z,5.20
2018-02-26T13:27:17.152Z,4.40
2018-02-26T13:28:22.668Z,5.20
2018-02-26T13:29:28.176Z,4.70
2018-02-26T13:30:33.736Z,3.90
2018-02-26T13:31:39.244Z,4.10
2018-02-26T13:32:45.035Z,4.00
2018-02-26T13:33:50.211Z,5.70
2018-02-26T13:34:55.733Z,4.70
2018-02-26T13:36:01.224Z,3.60
2018-02-26T13:37:06.730Z,3.70
2018-02-26T13:38:12.234Z,3.80
2018-02-26T13:39:17.746Z,4.20
2018-02-26T13:40:23.258Z,3.70
2018-02-26T13:41:28.759Z,4.30
2018-02-26T13:42:34.267Z,5.60
2018-02-26T13:43:39.774Z,4.00
2018-02-26T13:44:45.283Z,3.40
2018-02-26T13:45:50.883Z,4.30
2018-02-26T13:46:56.297Z,3.40
2018-02-26T13:48:01.802Z,4.10
2018-02-26T13:49:07.314Z,4.80
2018-02-26T13:50:12.821Z,3.80
2018-02-26T13:51:18.312Z,14.70
2018-02-26T13:52:23.825Z,4.30
2018-02-26T13:53:29.335Z,3.70
2018-02-26T13:54:34.828Z,4.00
2018-02-26T13:55:40.336Z,4.30
2018-02-26T13:56:45.844Z,6.50
2018-02-26T13:57:51.350Z,4.00
2018-02-26T13:58:56.875Z,4.00
2018-02-26T14:00:02.374Z,4.10
2018-02-26T14:01:07.878Z,3.80
2018-02-26T14:02:13.376Z,5.30
2018-02-26T14:03:18.884Z,4.90
2018-02-26T14:04:24.394Z,4.70
2018-02-26T14:05:29.896Z,4.20
2018-02-26T14:06:35.403Z,3.50
2018-02-26T14:07:40.901Z,4.90
2018-02-26T14:08:46.405Z,4.40
2018-02-26T14:09:51.924Z,4.10
2018-02-26T14:10:57.421Z,3.20
2018-02-26T14:12:02.925Z,3.50
2018-02-26T14:13:08.501Z,6.10
2018-02-26T14:14:13.947Z,5.50
2018-02-26T14:15:19.445Z,3.80
2018-02-26T14:16:24.956Z,3.40
2018-02-26T14:17:30.454Z,3.80
2018-02-26T14:18:35.967Z,3.50
2018-02-26T14:19:41.476Z,4.20
2018-02-26T14:20:46.974Z,4.10
2018-02-26T14:21:52.484Z,3.10
2018-02-26T14:22:57.987Z,3.80
2018-02-26T14:24:03.494Z,3.40
2018-02-26T14:25:09.003Z,4.40
2018-02-26T14:26:14.510Z,3.20
2018-02-26T14:27:20.022Z,3.50
2018-02-26T14:28:25.526Z,4.40
2018-02-26T14:29:31.033Z,3.00
2018-02-26T14:30:36.544Z,3.00
2018-02-26T14:31:42.056Z,3.10
2018-02-26T14:32:47.555Z,3.10
2018-02-26T14:33:53.067Z,3.60
2018-02-26T14:34:58.592Z,4.40
2018-02-26T14:36:04.098Z,4.20
2018-02-26T14:37:09.596Z,2.90
2018-02-26T14:38:15.093Z,3.20
2018-02-26T14:39:20.725Z,4.10
2018-02-26T14:40:26.187Z,4.00
2018-02-26T14:41:31.692Z,3.20
2018-02-26T14:42:37.121Z,3.50
2018-02-26T14:43:42.643Z,5.10
2018-02-26T14:44:48.171Z,3.90
2018-02-26T14:45:53.648Z,3.40
2018-02-26T14:46:59.147Z,3.20
2018-02-26T14:48:04.653Z,3.80
2018-02-26T14:49:10.159Z,3.20
2018-02-26T14:50:15.743Z,3.60
2018-02-26T14:51:21.165Z,3.80
2018-02-26T14:52:26.715Z,3.30
2018-02-26T14:53:32.264Z,5.70
2018-02-26T14:54:37.734Z,4.60
2018-02-26T14:55:43.177Z,5.10
2018-02-26T14:56:48.684Z,3.00
2018-02-26T14:57:54.198Z,3.60
2018-02-26T14:58:59.702Z,3.90
2018-02-26T15:00:05.199Z,4.10
2018-02-26T15:01:10.700Z,2.90
2018-02-26T15:02:16.214Z,3.90
2018-02-26T15:03:21.776Z,4.00
2018-02-26T15:04:27.233Z,3.70
2018-02-26T15:05:32.725Z,2.90
2018-02-26T15:06:38.276Z,3.20
2018-02-26T15:07:43.806Z,4.60
2018-02-26T15:08:49.260Z,2.80
2018-02-26T15:09:54.738Z,2.60
2018-02-26T15:11:00.249Z,3.30
2018-02-26T15:12:05.758Z,3.10
2018-02-26T15:13:11.253Z,3.20
2018-02-26T15:14:16.748Z,2.70
2018-02-26T15:15:22.253Z,3.30
2018-02-26T15:16:27.777Z,2.70
2018-02-26T15:17:33.268Z,2.70
2018-02-26T15:18:38.772Z,3.80
2018-02-26T15:19:44.266Z,3.00
2018-02-26T15:20:49.783Z,3.00
2018-02-26T15:21:55.279Z,3.10
2018-02-26T15:23:00.786Z,4.30
2018-02-26T15:24:06.285Z,4.30
2018-02-26T15:25:11.792Z,2.80
2018-02-26T15:26:17.289Z,4.00
2018-02-26T15:27:22.867Z,2.80
2018-02-26T15:28:28.351Z,3.30
2018-02-26T15:29:33.898Z,2.40
2018-02-26T15:30:39.305Z,2.80
2018-02-26T15:31:44.812Z,4.80
2018-02-26T15:32:50.328Z,2.40
2018-02-26T15:33:55.816Z,2.80
2018-02-26T15:35:01.314Z,3.90
2018-02-26T15:36:07.790Z,3.10
2018-02-26T15:37:12.335Z,2.60
2018-02-26T15:38:17.857Z,3.50
2018-02-26T15:39:23.329Z,3.30
2018-02-26T15:40:28.830Z,3.80
2018-02-26T15:41:34.432Z,2.90
2018-02-26T15:42:39.837Z,3.00
2018-02-26T15:43:45.348Z,2.40
2018-02-26T15:44:50.845Z,3.70
2018-02-26T15:45:56.356Z,4.10
2018-02-26T15:47:01.868Z,3.10
2018-02-26T15:48:07.357Z,3.10
2018-02-26T15:49:12.879Z,4.10
2018-02-26T15:50:18.365Z,4.80
2018-02-26T15:51:23.860Z,3.60
2018-02-26T15:52:29.387Z,3.30
2018-02-26T15:53:34.870Z,4.70
2018-02-26T15:54:40.373Z,3.00
2018-02-26T15:55:45.884Z,3.50
2018-02-26T15:56:51.382Z,3.60
2018-02-26T15:57:56.890Z,3.60
2018-02-26T15:59:02.392Z,3.30
2018-02-26T16:00:07.903Z,3.40
2018-02-26T16:01:13.403Z,2.60
2018-02-26T16:02:18.937Z,2.80
2018-02-26T16:03:24.443Z,2.80
2018-02-26T16:04:29.910Z,3.80
2018-02-26T16:05:35.415Z,5.10
2018-02-26T16:06:40.914Z,3.60
2018-02-26T16:07:46.421Z,3.80
2018-02-26T16:08:51.919Z,4.70
2018-02-26T16:09:57.424Z,3.50
2018-02-26T16:11:02.934Z,5.70
2018-02-26T16:12:08.437Z,3.60
2018-02-26T16:13:13.954Z,4.20
2018-02-26T16:14:19.434Z,4.90
2018-02-26T16:15:24.942Z,4.00
2018-02-26T16:16:30.442Z,3.60
2018-02-26T16:17:35.951Z,3.40
2018-02-26T16:18:41.454Z,4.00
2018-02-26T16:19:46.955Z,4.60
2018-02-26T16:20:52.471Z,4.70
2018-02-26T16:21:57.963Z,3.90
2018-02-26T16:23:03.466Z,3.20
2018-02-26T16:24:08.978Z,4.00
2018-02-26T16:25:14.475Z,4.90
2018-02-26T16:26:20.000Z,4.00
2018-02-26T16:27:25.471Z,3.20
2018-02-26T16:28:31.034Z,5.20
2018-02-26T16:29:36.637Z,3.70
2018-02-26T16:30:42.023Z,4.90
2018-02-26T16:31:47.523Z,3.90
2018-02-26T16:32:53.080Z,4.20
2018-02-26T16:33:58.496Z,3.00
2018-02-26T16:35:04.025Z,3.90
2018-02-26T16:36:09.517Z,3.90
2018-02-26T16:37:15.093Z,3.60
2018-02-26T16:38:20.504Z,3.10